sensor_id;sensor_type;location;lat;lon;timestamp;P1;durP1;ratioP1;P2;durP2;ratioP2
50731;SDS011;36700;50.488;2.544;2023-06-19T00:00:21;7.85;;;4.28;;
50731;SDS011;36700;50.488;2.544;2023-06-19T00:02:47;10.50;;;4.55;;
50731;SDS011;36700;50.488;2.544;2023-06-19T00:05:13;7.82;;;4.15;;
50731;SDS011;36700;50.488;2.544;2023-06-19T00:07:39;8.15;;;4.30;;
50731;SDS011;36700;50.488;2.544;2023-06-19T00:10:05;9.50;;;4.38;;
50731;SDS011;36700;50.488;2.544;2023-06-19T00:12:32;9.60;;;4.47;;
50731;SDS011;36700;50.488;2.544;2023-06-19T00:14:58;8.30;;;4.20;;
50731;SDS011;36700;50.488;2.544;2023-06-19T00:17:25;8.77;;;4.65;;
50731;SDS011;36700;50.488;2.544;2023-06-19T00:19:53;8.23;;;4.00;;
50731;SDS011;36700;50.488;2.544;2023-06-19T00:22:19;8.38;;;4.45;;
50731;SDS011;36700;50.488;2.544;2023-06-19T00:24:46;7.95;;;3.95;;
50731;SDS011;36700;50.488;2.544;2023-06-19T00:27:12;9.88;;;4.50;;
50731;SDS011;36700;50.488;2.544;2023-06-19T00:29:37;9.93;;;4.38;;
50731;SDS011;36700;50.488;2.544;2023-06-19T00:32:03;9.43;;;4.35;;
50731;SDS011;36700;50.488;2.544;2023-06-19T00:34:30;7.72;;;4.45;;
50731;SDS011;36700;50.488;2.544;2023-06-19T00:36:58;10.43;;;5.05;;
50731;SDS011;36700;50.488;2.544;2023-06-19T00:39:25;8.60;;;4.40;;
50731;SDS011;36700;50.488;2.544;2023-06-19T00:41:52;8.77;;;4.22;;
50731;SDS011;36700;50.488;2.544;2023-06-19T00:44:18;8.45;;;4.35;;
50731;SDS011;36700;50.488;2.544;2023-06-19T00:46:44;9.10;;;4.40;;
50731;SDS011;36700;50.488;2.544;2023-06-19T00:49:11;8.30;;;4.85;;
50731;SDS011;36700;50.488;2.544;2023-06-19T00:51:37;7.28;;;4.25;;
50731;SDS011;36700;50.488;2.544;2023-06-19T00:54:03;8.75;;;4.85;;
50731;SDS011;36700;50.488;2.544;2023-06-19T00:56:30;10.32;;;4.90;;
50731;SDS011;36700;50.488;2.544;2023-06-19T00:58:57;8.55;;;4.70;;
50731;SDS011;36700;50.488;2.544;2023-06-19T01:01:23;8.40;;;4.78;;
50731;SDS011;36700;50.488;2.544;2023-06-19T01:03:49;11.52;;;5.05;;
50731;SDS011;36700;50.488;2.544;2023-06-19T01:06:17;8.90;;;5.00;;
50731;SDS011;36700;50.488;2.544;2023-06-19T01:08:53;9.98;;;5.22;;
50731;SDS011;36700;50.488;2.544;2023-06-19T01:11:28;8.68;;;5.00;;
50731;SDS011;36700;50.488;2.544;2023-06-19T01:13:59;9.02;;;4.85;;
50731;SDS011;36700;50.488;2.544;2023-06-19T01:16:29;8.70;;;4.90;;
50731;SDS011;36700;50.488;2.544;2023-06-19T01:18:55;9.98;;;5.28;;
50731;SDS011;36700;50.488;2.544;2023-06-19T01:21:21;9.73;;;5.03;;
50731;SDS011;36700;50.488;2.544;2023-06-19T01:23:47;9.40;;;5.35;;
50731;SDS011;36700;50.488;2.544;2023-06-19T01:26:15;10.45;;;5.57;;
50731;SDS011;36700;50.488;2.544;2023-06-19T01:28:44;10.25;;;5.35;;
50731;SDS011;36700;50.488;2.544;2023-06-19T01:31:12;10.23;;;5.53;;
50731;SDS011;36700;50.488;2.544;2023-06-19T01:33:42;9.40;;;5.45;;
50731;SDS011;36700;50.488;2.544;2023-06-19T01:36:10;9.27;;;5.22;;
50731;SDS011;36700;50.488;2.544;2023-06-19T01:38:37;10.90;;;5.93;;
50731;SDS011;36700;50.488;2.544;2023-06-19T01:41:04;8.70;;;5.18;;
50731;SDS011;36700;50.488;2.544;2023-06-19T01:43:32;10.68;;;5.18;;
50731;SDS011;36700;50.488;2.544;2023-06-19T01:45:58;10.13;;;5.78;;
50731;SDS011;36700;50.488;2.544;2023-06-19T01:48:26;8.75;;;5.28;;
50731;SDS011;36700;50.488;2.544;2023-06-19T01:50:52;10.35;;;5.85;;
50731;SDS011;36700;50.488;2.544;2023-06-19T01:53:18;10.18;;;5.72;;
50731;SDS011;36700;50.488;2.544;2023-06-19T01:55:44;8.18;;;4.90;;
50731;SDS011;36700;50.488;2.544;2023-06-19T01:58:10;9.05;;;5.50;;
50731;SDS011;36700;50.488;2.544;2023-06-19T02:00:36;10.00;;;5.35;;
50731;SDS011;36700;50.488;2.544;2023-06-19T02:03:03;13.63;;;5.50;;
50731;SDS011;36700;50.488;2.544;2023-06-19T02:05:30;10.02;;;5.40;;
50731;SDS011;36700;50.488;2.544;2023-06-19T02:07:57;10.70;;;5.80;;
50731;SDS011;36700;50.488;2.544;2023-06-19T02:10:23;9.88;;;5.28;;
50731;SDS011;36700;50.488;2.544;2023-06-19T02:12:49;11.05;;;6.75;;
50731;SDS011;36700;50.488;2.544;2023-06-19T02:15:15;11.38;;;5.75;;
50731;SDS011;36700;50.488;2.544;2023-06-19T02:17:41;10.18;;;6.00;;
50731;SDS011;36700;50.488;2.544;2023-06-19T02:20:08;12.43;;;6.40;;
50731;SDS011;36700;50.488;2.544;2023-06-19T02:22:39;10.18;;;5.95;;
50731;SDS011;36700;50.488;2.544;2023-06-19T02:25:06;10.38;;;6.10;;
50731;SDS011;36700;50.488;2.544;2023-06-19T02:27:32;10.57;;;6.03;;
50731;SDS011;36700;50.488;2.544;2023-06-19T02:29:58;13.35;;;6.70;;
50731;SDS011;36700;50.488;2.544;2023-06-19T02:32:24;11.38;;;6.70;;
50731;SDS011;36700;50.488;2.544;2023-06-19T02:34:51;11.25;;;6.60;;
50731;SDS011;36700;50.488;2.544;2023-06-19T02:37:17;11.30;;;6.40;;
50731;SDS011;36700;50.488;2.544;2023-06-19T02:39:43;10.73;;;5.97;;
50731;SDS011;36700;50.488;2.544;2023-06-19T02:42:09;9.55;;;5.63;;
50731;SDS011;36700;50.488;2.544;2023-06-19T02:44:35;10.23;;;6.32;;
50731;SDS011;36700;50.488;2.544;2023-06-19T02:47:01;10.27;;;6.15;;
50731;SDS011;36700;50.488;2.544;2023-06-19T02:49:26;10.60;;;6.50;;
50731;SDS011;36700;50.488;2.544;2023-06-19T02:51:52;10.15;;;6.05;;
50731;SDS011;36700;50.488;2.544;2023-06-19T02:54:18;12.15;;;6.45;;
50731;SDS011;36700;50.488;2.544;2023-06-19T02:56:44;9.07;;;5.53;;
50731;SDS011;36700;50.488;2.544;2023-06-19T02:59:10;11.50;;;6.57;;
50731;SDS011;36700;50.488;2.544;2023-06-19T03:01:36;11.85;;;7.78;;
50731;SDS011;36700;50.488;2.544;2023-06-19T03:04:02;11.25;;;6.45;;
50731;SDS011;36700;50.488;2.544;2023-06-19T03:06:28;10.70;;;6.60;;
50731;SDS011;36700;50.488;2.544;2023-06-19T03:08:54;10.13;;;6.10;;
50731;SDS011;36700;50.488;2.544;2023-06-19T03:11:20;9.98;;;6.13;;
50731;SDS011;36700;50.488;2.544;2023-06-19T03:13:53;10.68;;;6.72;;
50731;SDS011;36700;50.488;2.544;2023-06-19T03:16:20;10.85;;;6.72;;
50731;SDS011;36700;50.488;2.544;2023-06-19T03:18:46;9.60;;;5.63;;
50731;SDS011;36700;50.488;2.544;2023-06-19T03:21:13;11.05;;;6.32;;
50731;SDS011;36700;50.488;2.544;2023-06-19T03:23:39;9.65;;;5.55;;
50731;SDS011;36700;50.488;2.544;2023-06-19T03:26:09;10.43;;;6.30;;
50731;SDS011;36700;50.488;2.544;2023-06-19T03:28:36;10.30;;;6.15;;
50731;SDS011;36700;50.488;2.544;2023-06-19T03:31:02;12.60;;;6.85;;
50731;SDS011;36700;50.488;2.544;2023-06-19T03:33:28;12.07;;;6.55;;
50731;SDS011;36700;50.488;2.544;2023-06-19T03:35:54;10.02;;;6.13;;
50731;SDS011;36700;50.488;2.544;2023-06-19T03:38:20;10.10;;;6.68;;
50731;SDS011;36700;50.488;2.544;2023-06-19T03:40:46;10.45;;;6.35;;
50731;SDS011;36700;50.488;2.544;2023-06-19T03:43:12;9.95;;;5.95;;
50731;SDS011;36700;50.488;2.544;2023-06-19T03:45:38;10.90;;;6.32;;
50731;SDS011;36700;50.488;2.544;2023-06-19T03:48:04;10.82;;;6.07;;
50731;SDS011;36700;50.488;2.544;2023-06-19T03:50:30;10.10;;;5.65;;
50731;SDS011;36700;50.488;2.544;2023-06-19T03:52:56;10.57;;;6.15;;
50731;SDS011;36700;50.488;2.544;2023-06-19T03:55:22;10.65;;;5.88;;
50731;SDS011;36700;50.488;2.544;2023-06-19T03:57:48;11.80;;;6.20;;
50731;SDS011;36700;50.488;2.544;2023-06-19T04:00:14;9.05;;;5.68;;
50731;SDS011;36700;50.488;2.544;2023-06-19T04:02:41;10.40;;;5.78;;
50731;SDS011;36700;50.488;2.544;2023-06-19T04:05:07;10.07;;;5.90;;
50731;SDS011;36700;50.488;2.544;2023-06-19T04:07:33;9.68;;;5.53;;
50731;SDS011;36700;50.488;2.544;2023-06-19T04:09:59;9.93;;;5.30;;
50731;SDS011;36700;50.488;2.544;2023-06-19T04:12:25;10.35;;;5.72;;
50731;SDS011;36700;50.488;2.544;2023-06-19T04:14:50;9.80;;;6.07;;
50731;SDS011;36700;50.488;2.544;2023-06-19T04:17:17;10.90;;;6.28;;
50731;SDS011;36700;50.488;2.544;2023-06-19T04:19:43;10.38;;;5.75;;
50731;SDS011;36700;50.488;2.544;2023-06-19T04:22:09;11.63;;;5.65;;
50731;SDS011;36700;50.488;2.544;2023-06-19T04:24:35;10.13;;;5.78;;
50731;SDS011;36700;50.488;2.544;2023-06-19T04:27:01;10.20;;;5.53;;
50731;SDS011;36700;50.488;2.544;2023-06-19T04:29:27;10.43;;;5.70;;
50731;SDS011;36700;50.488;2.544;2023-06-19T04:31:59;10.00;;;5.85;;
50731;SDS011;36700;50.488;2.544;2023-06-19T04:34:28;10.70;;;5.50;;
50731;SDS011;36700;50.488;2.544;2023-06-19T04:36:55;10.60;;;6.15;;
50731;SDS011;36700;50.488;2.544;2023-06-19T04:39:24;9.45;;;5.82;;
50731;SDS011;36700;50.488;2.544;2023-06-19T04:41:50;9.95;;;4.97;;
50731;SDS011;36700;50.488;2.544;2023-06-19T04:44:16;9.88;;;5.50;;
50731;SDS011;36700;50.488;2.544;2023-06-19T04:46:42;8.38;;;5.35;;
50731;SDS011;36700;50.488;2.544;2023-06-19T04:49:09;12.18;;;6.03;;
50731;SDS011;36700;50.488;2.544;2023-06-19T04:51:35;9.68;;;5.68;;
50731;SDS011;36700;50.488;2.544;2023-06-19T04:54:01;9.70;;;5.35;;
50731;SDS011;36700;50.488;2.544;2023-06-19T04:56:28;9.65;;;5.60;;
50731;SDS011;36700;50.488;2.544;2023-06-19T04:58:55;9.55;;;5.65;;
50731;SDS011;36700;50.488;2.544;2023-06-19T05:01:25;8.05;;;5.07;;
50731;SDS011;36700;50.488;2.544;2023-06-19T05:03:55;9.35;;;5.35;;
50731;SDS011;36700;50.488;2.544;2023-06-19T05:06:22;8.77;;;5.00;;
50731;SDS011;36700;50.488;2.544;2023-06-19T05:08:49;9.07;;;5.22;;
50731;SDS011;36700;50.488;2.544;2023-06-19T05:11:15;9.07;;;4.93;;
50731;SDS011;36700;50.488;2.544;2023-06-19T05:13:41;10.82;;;5.65;;
50731;SDS011;36700;50.488;2.544;2023-06-19T05:16:07;9.20;;;5.05;;
50731;SDS011;36700;50.488;2.544;2023-06-19T05:18:33;9.40;;;5.75;;
50731;SDS011;36700;50.488;2.544;2023-06-19T05:20:59;8.07;;;4.53;;
50731;SDS011;36700;50.488;2.544;2023-06-19T05:23:25;9.48;;;5.15;;
50731;SDS011;36700;50.488;2.544;2023-06-19T05:25:51;8.88;;;5.18;;
50731;SDS011;36700;50.488;2.544;2023-06-19T05:28:19;8.50;;;5.30;;
50731;SDS011;36700;50.488;2.544;2023-06-19T05:30:45;9.93;;;5.05;;
50731;SDS011;36700;50.488;2.544;2023-06-19T05:33:10;8.80;;;5.40;;
50731;SDS011;36700;50.488;2.544;2023-06-19T05:35:44;8.95;;;5.18;;
50731;SDS011;36700;50.488;2.544;2023-06-19T05:38:16;9.65;;;5.38;;
50731;SDS011;36700;50.488;2.544;2023-06-19T05:40:42;8.38;;;4.90;;
50731;SDS011;36700;50.488;2.544;2023-06-19T05:43:08;8.95;;;5.28;;
50731;SDS011;36700;50.488;2.544;2023-06-19T05:45:38;9.45;;;5.00;;
50731;SDS011;36700;50.488;2.544;2023-06-19T05:48:04;10.88;;;5.35;;
50731;SDS011;36700;50.488;2.544;2023-06-19T05:50:30;9.95;;;5.07;;
50731;SDS011;36700;50.488;2.544;2023-06-19T05:52:56;8.68;;;5.18;;
50731;SDS011;36700;50.488;2.544;2023-06-19T05:55:22;10.15;;;5.30;;
50731;SDS011;36700;50.488;2.544;2023-06-19T05:57:50;8.55;;;5.07;;
50731;SDS011;36700;50.488;2.544;2023-06-19T06:00:16;7.75;;;4.63;;
50731;SDS011;36700;50.488;2.544;2023-06-19T06:02:43;9.02;;;4.95;;
50731;SDS011;36700;50.488;2.544;2023-06-19T06:05:09;9.18;;;4.93;;
50731;SDS011;36700;50.488;2.544;2023-06-19T06:07:36;8.70;;;5.00;;
50731;SDS011;36700;50.488;2.544;2023-06-19T06:10:05;8.48;;;4.90;;
50731;SDS011;36700;50.488;2.544;2023-06-19T06:12:34;8.57;;;4.75;;
50731;SDS011;36700;50.488;2.544;2023-06-19T06:15:01;8.70;;;5.18;;
50731;SDS011;36700;50.488;2.544;2023-06-19T06:17:28;8.02;;;4.53;;
50731;SDS011;36700;50.488;2.544;2023-06-19T06:19:54;8.15;;;5.20;;
50731;SDS011;36700;50.488;2.544;2023-06-19T06:22:20;10.43;;;5.75;;
50731;SDS011;36700;50.488;2.544;2023-06-19T06:24:46;9.52;;;5.15;;
50731;SDS011;36700;50.488;2.544;2023-06-19T06:27:12;9.27;;;5.28;;
50731;SDS011;36700;50.488;2.544;2023-06-19T06:29:39;11.60;;;5.53;;
50731;SDS011;36700;50.488;2.544;2023-06-19T06:32:08;11.55;;;5.40;;
50731;SDS011;36700;50.488;2.544;2023-06-19T06:34:35;10.25;;;5.32;;
50731;SDS011;36700;50.488;2.544;2023-06-19T06:37:01;9.77;;;5.50;;
50731;SDS011;36700;50.488;2.544;2023-06-19T06:39:27;9.88;;;5.45;;
50731;SDS011;36700;50.488;2.544;2023-06-19T06:41:53;10.48;;;5.82;;
50731;SDS011;36700;50.488;2.544;2023-06-19T06:44:19;8.93;;;5.10;;
50731;SDS011;36700;50.488;2.544;2023-06-19T06:46:46;12.25;;;6.07;;
50731;SDS011;36700;50.488;2.544;2023-06-19T06:49:12;8.95;;;5.50;;
50731;SDS011;36700;50.488;2.544;2023-06-19T06:51:38;10.30;;;5.57;;
50731;SDS011;36700;50.488;2.544;2023-06-19T06:54:04;9.75;;;5.60;;
50731;SDS011;36700;50.488;2.544;2023-06-19T06:56:29;9.88;;;5.20;;
50731;SDS011;36700;50.488;2.544;2023-06-19T06:58:55;10.85;;;5.45;;
50731;SDS011;36700;50.488;2.544;2023-06-19T07:01:21;8.43;;;5.15;;
50731;SDS011;36700;50.488;2.544;2023-06-19T07:03:47;9.25;;;4.80;;
50731;SDS011;36700;50.488;2.544;2023-06-19T07:06:13;9.60;;;5.15;;
50731;SDS011;36700;50.488;2.544;2023-06-19T07:08:39;8.38;;;5.10;;
50731;SDS011;36700;50.488;2.544;2023-06-19T07:11:09;8.27;;;4.95;;
50731;SDS011;36700;50.488;2.544;2023-06-19T07:13:35;12.25;;;5.35;;
50731;SDS011;36700;50.488;2.544;2023-06-19T07:16:01;9.00;;;5.13;;
50731;SDS011;36700;50.488;2.544;2023-06-19T07:18:27;9.45;;;5.40;;
50731;SDS011;36700;50.488;2.544;2023-06-19T07:20:53;9.13;;;4.97;;
50731;SDS011;36700;50.488;2.544;2023-06-19T07:23:19;9.80;;;5.10;;
50731;SDS011;36700;50.488;2.544;2023-06-19T07:25:45;10.93;;;5.22;;
50731;SDS011;36700;50.488;2.544;2023-06-19T07:28:12;11.00;;;5.78;;
50731;SDS011;36700;50.488;2.544;2023-06-19T07:30:38;9.48;;;5.35;;
50731;SDS011;36700;50.488;2.544;2023-06-19T07:33:05;9.13;;;5.05;;
50731;SDS011;36700;50.488;2.544;2023-06-19T07:35:31;9.95;;;5.47;;
50731;SDS011;36700;50.488;2.544;2023-06-19T07:37:57;11.63;;;5.88;;
50731;SDS011;36700;50.488;2.544;2023-06-19T07:40:23;11.82;;;5.65;;
50731;SDS011;36700;50.488;2.544;2023-06-19T07:42:49;10.23;;;5.32;;
50731;SDS011;36700;50.488;2.544;2023-06-19T07:45:15;10.38;;;5.55;;
50731;SDS011;36700;50.488;2.544;2023-06-19T07:47:41;9.23;;;5.47;;
50731;SDS011;36700;50.488;2.544;2023-06-19T07:50:07;11.25;;;5.72;;
50731;SDS011;36700;50.488;2.544;2023-06-19T07:52:33;10.60;;;5.45;;
50731;SDS011;36700;50.488;2.544;2023-06-19T07:54:59;9.98;;;5.70;;
50731;SDS011;36700;50.488;2.544;2023-06-19T07:57:25;8.85;;;5.40;;
50731;SDS011;36700;50.488;2.544;2023-06-19T07:59:52;9.82;;;5.70;;
50731;SDS011;36700;50.488;2.544;2023-06-19T08:02:19;9.98;;;5.55;;
50731;SDS011;36700;50.488;2.544;2023-06-19T08:04:46;9.85;;;5.40;;
50731;SDS011;36700;50.488;2.544;2023-06-19T08:07:12;9.95;;;5.70;;
50731;SDS011;36700;50.488;2.544;2023-06-19T08:09:38;12.05;;;5.63;;
50731;SDS011;36700;50.488;2.544;2023-06-19T08:12:04;10.55;;;5.40;;
50731;SDS011;36700;50.488;2.544;2023-06-19T08:14:31;10.57;;;5.50;;
50731;SDS011;36700;50.488;2.544;2023-06-19T08:16:56;9.13;;;5.43;;
50731;SDS011;36700;50.488;2.544;2023-06-19T08:19:22;12.27;;;7.22;;
50731;SDS011;36700;50.488;2.544;2023-06-19T08:21:48;10.95;;;6.00;;
50731;SDS011;36700;50.488;2.544;2023-06-19T08:24:14;12.07;;;6.10;;
50731;SDS011;36700;50.488;2.544;2023-06-19T08:26:40;11.55;;;6.30;;
50731;SDS011;36700;50.488;2.544;2023-06-19T08:29:06;12.35;;;6.70;;
50731;SDS011;36700;50.488;2.544;2023-06-19T08:31:32;11.88;;;6.40;;
50731;SDS011;36700;50.488;2.544;2023-06-19T08:33:59;10.18;;;5.82;;
50731;SDS011;36700;50.488;2.544;2023-06-19T08:36:26;11.27;;;5.93;;
50731;SDS011;36700;50.488;2.544;2023-06-19T08:38:51;10.25;;;5.68;;
50731;SDS011;36700;50.488;2.544;2023-06-19T08:41:18;10.30;;;5.60;;
50731;SDS011;36700;50.488;2.544;2023-06-19T08:43:45;9.65;;;5.47;;
50731;SDS011;36700;50.488;2.544;2023-06-19T08:46:13;12.18;;;6.18;;
50731;SDS011;36700;50.488;2.544;2023-06-19T08:48:41;10.00;;;6.03;;
50731;SDS011;36700;50.488;2.544;2023-06-19T08:51:07;13.65;;;6.18;;
50731;SDS011;36700;50.488;2.544;2023-06-19T08:53:36;11.50;;;5.85;;
50731;SDS011;36700;50.488;2.544;2023-06-19T08:56:20;10.18;;;5.97;;
50731;SDS011;36700;50.488;2.544;2023-06-19T08:58:46;9.20;;;5.65;;
50731;SDS011;36700;50.488;2.544;2023-06-19T09:01:13;10.30;;;5.57;;
50731;SDS011;36700;50.488;2.544;2023-06-19T09:03:42;16.40;;;8.05;;
50731;SDS011;36700;50.488;2.544;2023-06-19T09:06:09;14.63;;;8.40;;
50731;SDS011;36700;50.488;2.544;2023-06-19T09:08:35;51.40;;;12.20;;
50731;SDS011;36700;50.488;2.544;2023-06-19T09:11:03;27.48;;;11.25;;
50731;SDS011;36700;50.488;2.544;2023-06-19T09:13:30;47.25;;;11.38;;
50731;SDS011;36700;50.488;2.544;2023-06-19T09:15:58;29.35;;;11.27;;
50731;SDS011;36700;50.488;2.544;2023-06-19T09:18:42;46.90;;;17.70;;
50731;SDS011;36700;50.488;2.544;2023-06-19T09:21:20;45.13;;;16.70;;
50731;SDS011;36700;50.488;2.544;2023-06-19T09:23:48;32.00;;;13.27;;
50731;SDS011;36700;50.488;2.544;2023-06-19T09:26:17;23.50;;;12.43;;
50731;SDS011;36700;50.488;2.544;2023-06-19T09:28:45;24.35;;;11.80;;
50731;SDS011;36700;50.488;2.544;2023-06-19T09:31:11;22.67;;;11.32;;
50731;SDS011;36700;50.488;2.544;2023-06-19T09:33:38;22.27;;;11.30;;
50731;SDS011;36700;50.488;2.544;2023-06-19T09:36:05;17.33;;;10.27;;
50731;SDS011;36700;50.488;2.544;2023-06-19T09:38:33;191.45;;;48.47;;
50731;SDS011;36700;50.488;2.544;2023-06-19T09:41:01;152.98;;;39.78;;
50731;SDS011;36700;50.488;2.544;2023-06-19T09:43:39;105.90;;;30.80;;
50731;SDS011;36700;50.488;2.544;2023-06-19T09:46:08;83.22;;;22.48;;
50731;SDS011;36700;50.488;2.544;2023-06-19T09:48:39;35.08;;;15.13;;
50731;SDS011;36700;50.488;2.544;2023-06-19T09:51:12;139.13;;;38.58;;
50731;SDS011;36700;50.488;2.544;2023-06-19T09:53:44;107.40;;;32.67;;
50731;SDS011;36700;50.488;2.544;2023-06-19T09:56:12;54.15;;;20.63;;
50731;SDS011;36700;50.488;2.544;2023-06-19T09:58:38;49.80;;;18.17;;
50731;SDS011;36700;50.488;2.544;2023-06-19T10:01:06;44.90;;;15.60;;
50731;SDS011;36700;50.488;2.544;2023-06-19T10:03:33;34.35;;;15.20;;
50731;SDS011;36700;50.488;2.544;2023-06-19T10:06:00;29.50;;;13.75;;
50731;SDS011;36700;50.488;2.544;2023-06-19T10:08:32;23.73;;;13.23;;
50731;SDS011;36700;50.488;2.544;2023-06-19T10:11:04;25.67;;;13.23;;
50731;SDS011;36700;50.488;2.544;2023-06-19T10:13:31;22.20;;;12.35;;
50731;SDS011;36700;50.488;2.544;2023-06-19T10:16:04;20.40;;;12.27;;
50731;SDS011;36700;50.488;2.544;2023-06-19T10:18:44;19.48;;;12.23;;
50731;SDS011;36700;50.488;2.544;2023-06-19T10:21:21;21.17;;;11.18;;
50731;SDS011;36700;50.488;2.544;2023-06-19T10:23:54;24.33;;;13.07;;
50731;SDS011;36700;50.488;2.544;2023-06-19T10:26:28;23.50;;;12.15;;
50731;SDS011;36700;50.488;2.544;2023-06-19T10:28:58;22.50;;;12.10;;
50731;SDS011;36700;50.488;2.544;2023-06-19T10:31:24;22.67;;;12.27;;
50731;SDS011;36700;50.488;2.544;2023-06-19T10:33:50;23.15;;;13.05;;
50731;SDS011;36700;50.488;2.544;2023-06-19T10:36:20;22.85;;;12.80;;
50731;SDS011;36700;50.488;2.544;2023-06-19T10:38:48;19.75;;;11.80;;
50731;SDS011;36700;50.488;2.544;2023-06-19T10:41:21;21.17;;;12.45;;
50731;SDS011;36700;50.488;2.544;2023-06-19T10:43:58;19.55;;;12.35;;
50731;SDS011;36700;50.488;2.544;2023-06-19T10:46:30;23.05;;;12.48;;
50731;SDS011;36700;50.488;2.544;2023-06-19T10:48:59;19.90;;;12.57;;
50731;SDS011;36700;50.488;2.544;2023-06-19T10:51:40;23.10;;;12.53;;
50731;SDS011;36700;50.488;2.544;2023-06-19T10:54:09;23.60;;;13.45;;
50731;SDS011;36700;50.488;2.544;2023-06-19T10:56:35;20.95;;;12.05;;
50731;SDS011;36700;50.488;2.544;2023-06-19T10:59:08;20.58;;;12.00;;
50731;SDS011;36700;50.488;2.544;2023-06-19T11:01:36;20.88;;;12.10;;
50731;SDS011;36700;50.488;2.544;2023-06-19T11:04:07;21.67;;;11.63;;
50731;SDS011;36700;50.488;2.544;2023-06-19T11:06:34;21.33;;;11.02;;
50731;SDS011;36700;50.488;2.544;2023-06-19T11:09:02;21.13;;;11.48;;
50731;SDS011;36700;50.488;2.544;2023-06-19T11:11:37;21.05;;;10.93;;
50731;SDS011;36700;50.488;2.544;2023-06-19T11:14:07;17.77;;;10.20;;
50731;SDS011;36700;50.488;2.544;2023-06-19T11:16:34;20.08;;;10.75;;
50731;SDS011;36700;50.488;2.544;2023-06-19T11:19:01;19.90;;;10.82;;
50731;SDS011;36700;50.488;2.544;2023-06-19T11:21:34;19.83;;;10.18;;
50731;SDS011;36700;50.488;2.544;2023-06-19T11:24:04;17.65;;;9.77;;
50731;SDS011;36700;50.488;2.544;2023-06-19T11:26:38;18.17;;;9.88;;
50731;SDS011;36700;50.488;2.544;2023-06-19T11:29:19;20.50;;;10.13;;
50731;SDS011;36700;50.488;2.544;2023-06-19T11:31:46;19.90;;;10.75;;
50731;SDS011;36700;50.488;2.544;2023-06-19T11:34:13;18.33;;;10.93;;
50731;SDS011;36700;50.488;2.544;2023-06-19T11:36:40;18.00;;;9.77;;
50731;SDS011;36700;50.488;2.544;2023-06-19T11:39:13;18.15;;;9.30;;
50731;SDS011;36700;50.488;2.544;2023-06-19T11:41:41;18.02;;;9.00;;
50731;SDS011;36700;50.488;2.544;2023-06-19T11:44:09;15.65;;;8.85;;
50731;SDS011;36700;50.488;2.544;2023-06-19T11:46:35;18.42;;;8.73;;
50731;SDS011;36700;50.488;2.544;2023-06-19T11:51:46;16.10;;;7.70;;
50731;SDS011;36700;50.488;2.544;2023-06-19T11:54:13;16.42;;;7.47;;
50731;SDS011;36700;50.488;2.544;2023-06-19T11:56:43;13.82;;;7.25;;
50731;SDS011;36700;50.488;2.544;2023-06-19T11:59:09;15.70;;;7.85;;
50731;SDS011;36700;50.488;2.544;2023-06-19T12:01:36;15.20;;;8.13;;
50731;SDS011;36700;50.488;2.544;2023-06-19T12:04:02;13.50;;;6.97;;
50731;SDS011;36700;50.488;2.544;2023-06-19T12:06:29;14.98;;;7.40;;
50731;SDS011;36700;50.488;2.544;2023-06-19T12:08:55;16.60;;;7.25;;
50731;SDS011;36700;50.488;2.544;2023-06-19T12:11:21;15.30;;;6.97;;
50731;SDS011;36700;50.488;2.544;2023-06-19T12:13:47;13.25;;;6.70;;
50731;SDS011;36700;50.488;2.544;2023-06-19T12:16:14;12.55;;;6.80;;
50731;SDS011;36700;50.488;2.544;2023-06-19T12:18:40;14.88;;;6.57;;
50731;SDS011;36700;50.488;2.544;2023-06-19T12:21:06;13.38;;;6.50;;
50731;SDS011;36700;50.488;2.544;2023-06-19T12:23:32;14.38;;;6.10;;
50731;SDS011;36700;50.488;2.544;2023-06-19T12:25:58;14.38;;;6.65;;
50731;SDS011;36700;50.488;2.544;2023-06-19T12:28:24;12.82;;;6.28;;
50731;SDS011;36700;50.488;2.544;2023-06-19T12:30:51;16.75;;;7.10;;
50731;SDS011;36700;50.488;2.544;2023-06-19T12:33:19;15.00;;;6.97;;
50731;SDS011;36700;50.488;2.544;2023-06-19T12:35:46;12.82;;;6.43;;
50731;SDS011;36700;50.488;2.544;2023-06-19T12:38:12;13.95;;;6.63;;
50731;SDS011;36700;50.488;2.544;2023-06-19T12:40:39;13.65;;;6.00;;
50731;SDS011;36700;50.488;2.544;2023-06-19T12:43:06;12.15;;;6.45;;
50731;SDS011;36700;50.488;2.544;2023-06-19T12:45:33;14.23;;;7.15;;
50731;SDS011;36700;50.488;2.544;2023-06-19T12:48:01;15.57;;;6.97;;
50731;SDS011;36700;50.488;2.544;2023-06-19T12:50:27;14.85;;;6.78;;
50731;SDS011;36700;50.488;2.544;2023-06-19T12:52:53;12.73;;;5.97;;
50731;SDS011;36700;50.488;2.544;2023-06-19T12:55:19;17.55;;;6.22;;
50731;SDS011;36700;50.488;2.544;2023-06-19T12:57:45;14.73;;;6.63;;
50731;SDS011;36700;50.488;2.544;2023-06-19T13:00:11;13.82;;;6.43;;
50731;SDS011;36700;50.488;2.544;2023-06-19T13:02:38;12.07;;;6.13;;
50731;SDS011;36700;50.488;2.544;2023-06-19T13:05:06;14.45;;;6.97;;
50731;SDS011;36700;50.488;2.544;2023-06-19T13:07:32;12.85;;;6.53;;
50731;SDS011;36700;50.488;2.544;2023-06-19T13:09:58;15.15;;;7.35;;
50731;SDS011;36700;50.488;2.544;2023-06-19T13:12:25;14.20;;;7.00;;
50731;SDS011;36700;50.488;2.544;2023-06-19T13:14:51;12.40;;;6.05;;
50731;SDS011;36700;50.488;2.544;2023-06-19T13:17:17;15.93;;;7.38;;
50731;SDS011;36700;50.488;2.544;2023-06-19T13:19:43;14.48;;;7.10;;
50731;SDS011;36700;50.488;2.544;2023-06-19T13:22:08;16.17;;;7.05;;
50731;SDS011;36700;50.488;2.544;2023-06-19T13:24:34;13.88;;;7.00;;
50731;SDS011;36700;50.488;2.544;2023-06-19T13:27:00;15.30;;;6.38;;
50731;SDS011;36700;50.488;2.544;2023-06-19T13:29:27;22.33;;;7.20;;
50731;SDS011;36700;50.488;2.544;2023-06-19T13:31:53;34.75;;;6.95;;
50731;SDS011;36700;50.488;2.544;2023-06-19T13:34:19;28.92;;;7.18;;
50731;SDS011;36700;50.488;2.544;2023-06-19T13:36:47;24.17;;;7.03;;
50731;SDS011;36700;50.488;2.544;2023-06-19T13:39:13;19.90;;;6.60;;
50731;SDS011;36700;50.488;2.544;2023-06-19T13:41:39;14.48;;;5.75;;
50731;SDS011;36700;50.488;2.544;2023-06-19T13:44:05;15.60;;;6.00;;
50731;SDS011;36700;50.488;2.544;2023-06-19T13:46:31;17.10;;;6.07;;
50731;SDS011;36700;50.488;2.544;2023-06-19T13:48:58;29.40;;;6.50;;
50731;SDS011;36700;50.488;2.544;2023-06-19T13:51:24;15.50;;;6.32;;
50731;SDS011;36700;50.488;2.544;2023-06-19T13:53:50;14.93;;;5.53;;
50731;SDS011;36700;50.488;2.544;2023-06-19T13:56:17;13.55;;;6.15;;
50731;SDS011;36700;50.488;2.544;2023-06-19T13:58:43;14.23;;;6.30;;
50731;SDS011;36700;50.488;2.544;2023-06-19T14:01:09;11.45;;;5.30;;
50731;SDS011;36700;50.488;2.544;2023-06-19T14:03:36;10.77;;;5.55;;
50731;SDS011;36700;50.488;2.544;2023-06-19T14:06:03;10.50;;;5.68;;
50731;SDS011;36700;50.488;2.544;2023-06-19T14:08:29;11.20;;;6.00;;
50731;SDS011;36700;50.488;2.544;2023-06-19T14:10:55;14.23;;;5.90;;
50731;SDS011;36700;50.488;2.544;2023-06-19T14:13:21;13.55;;;5.97;;
50731;SDS011;36700;50.488;2.544;2023-06-19T14:15:47;22.10;;;5.65;;
50731;SDS011;36700;50.488;2.544;2023-06-19T14:18:13;12.20;;;5.80;;
50731;SDS011;36700;50.488;2.544;2023-06-19T14:20:39;10.85;;;5.63;;
50731;SDS011;36700;50.488;2.544;2023-06-19T14:23:07;10.02;;;4.70;;
50731;SDS011;36700;50.488;2.544;2023-06-19T14:25:34;12.38;;;5.10;;
50731;SDS011;36700;50.488;2.544;2023-06-19T14:28:00;9.05;;;4.82;;
50731;SDS011;36700;50.488;2.544;2023-06-19T14:30:26;11.50;;;5.32;;
50731;SDS011;36700;50.488;2.544;2023-06-19T14:32:52;14.77;;;5.15;;
50731;SDS011;36700;50.488;2.544;2023-06-19T14:35:18;9.65;;;5.00;;
50731;SDS011;36700;50.488;2.544;2023-06-19T14:37:44;11.43;;;5.53;;